Time;durP1;ratioP1;P1;durP2;ratioP2;P2;SDS_P1;SDS_P2;PMS_P1;PMS_P2;Temp;Humidity;BMP_temperature;BMP_pressure;BME280_temperature;BME280_humidity;BME280_pressure;Samples;Min_cycle;Max_cycle;Signal;HPM_P1;HPM_P2
2023/02/07 00:00:24;;;;;;;31.85;20.25;;;;;;;;;;5043716;28;20477;-85
2023/02/07 00:02:54;;;;;;;35.72;22.50;;;;;;;;;;5061021;28;20485;-85
2023/02/07 00:05:22;;;;;;;41.08;25.70;;;;;;;;;;5040705;28;20053;-85
2023/02/07 00:07:49;;;;;;;39.17;23.60;;;;;;;;;;5059486;28;20106;-85
2023/02/07 00:10:16;;;;;;;38.75;25.23;;;;;;;;;;5040256;28;20393;-85
2023/02/07 00:12:43;;;;;;;40.67;24.15;;;;;;;;;;5056935;28;20416;-85
2023/02/07 00:15:11;;;;;;;38.20;23.77;;;;;;;;;;5039933;28;20409;-85
2023/02/07 00:17:38;;;;;;;35.40;23.30;;;;;;;;;;5042883;28;20405;-85
2023/02/07 00:20:06;;;;;;;39.80;22.98;;;;;;;;;;5058916;28;20500;-85
2023/02/07 00:22:33;;;;;;;39.80;24.25;;;;;;;;;;5058005;28;20045;-85
2023/02/07 00:25:00;;;;;;;36.63;24.05;;;;;;;;;;5068678;28;20043;-85
2023/02/07 00:27:27;;;;;;;37.00;23.48;;;;;;;;;;5079651;28;20036;-85
2023/02/07 00:29:54;;;;;;;35.03;22.95;;;;;;;;;;5054789;28;20409;-85
2023/02/07 00:32:22;;;;;;;35.28;22.08;;;;;;;;;;5039583;28;20053;-86
2023/02/07 00:34:52;;;;;;;32.33;21.88;;;;;;;;;;5042221;28;20049;-85
2023/02/07 00:37:19;;;;;;;33.78;21.73;;;;;;;;;;5041968;28;20053;-85
2023/02/07 00:39:46;;;;;;;36.30;23.55;;;;;;;;;;5040042;28;20087;-86
2023/02/07 00:42:13;;;;;;;38.45;22.98;;;;;;;;;;5042542;28;20049;-85
2023/02/07 00:44:41;;;;;;;39.00;23.50;;;;;;;;;;5058853;28;20139;-85
2023/02/07 00:47:08;;;;;;;37.00;22.88;;;;;;;;;;5042669;28;20049;-85
2023/02/07 00:49:35;;;;;;;37.67;24.23;;;;;;;;;;5057933;28;20059;-85
2023/02/07 00:52:02;;;;;;;37.03;23.27;;;;;;;;;;5042715;28;20045;-86
2023/02/07 00:54:29;;;;;;;36.92;23.42;;;;;;;;;;5058910;28;20064;-85
2023/02/07 00:56:57;;;;;;;36.45;23.08;;;;;;;;;;5056427;28;20295;-84
2023/02/07 00:59:24;;;;;;;36.80;23.30;;;;;;;;;;5041314;28;20129;-85
2023/02/07 01:01:51;;;;;;;37.13;23.52;;;;;;;;;;5040228;28;20048;-85
2023/02/07 01:04:18;;;;;;;36.22;23.30;;;;;;;;;;5041155;28;20433;-85
2023/02/07 01:06:46;;;;;;;41.00;23.33;;;;;;;;;;5038746;28;20504;-86
2023/02/07 01:09:13;;;;;;;38.47;23.05;;;;;;;;;;5038484;28;20053;-85
2023/02/07 01:11:40;;;;;;;35.63;22.83;;;;;;;;;;5056082;28;20059;-84
2023/02/07 01:14:07;;;;;;;39.05;24.42;;;;;;;;;;5038365;28;20041;-85
2023/02/07 01:16:35;;;;;;;37.47;22.75;;;;;;;;;;5040492;28;20057;-85
2023/02/07 01:19:04;;;;;;;37.80;23.00;;;;;;;;;;5040795;28;20048;-85
2023/02/07 01:21:32;;;;;;;38.42;22.35;;;;;;;;;;5040017;28;20079;-85
2023/02/07 01:23:59;;;;;;;37.50;22.80;;;;;;;;;;5039493;28;20135;-85
2023/02/07 01:26:27;;;;;;;38.90;23.75;;;;;;;;;;5038474;28;20106;-85
2023/02/07 01:28:55;;;;;;;41.42;25.45;;;;;;;;;;5042804;28;20072;-86
2023/02/07 01:31:23;;;;;;;41.25;24.65;;;;;;;;;;5043150;28;20140;-85
2023/02/07 01:33:54;;;;;;;41.90;24.40;;;;;;;;;;5043238;28;20052;-85
2023/02/07 01:36:22;;;;;;;44.33;24.85;;;;;;;;;;5058554;28;20045;-85
2023/02/07 01:38:51;;;;;;;40.03;23.48;;;;;;;;;;5041848;28;20136;-85
2023/02/07 01:41:18;;;;;;;39.70;23.20;;;;;;;;;;5063263;28;20041;-85
2023/02/07 01:43:53;;;;;;;36.97;21.38;;;;;;;;;;5048848;28;20125;-85
2023/02/07 01:46:20;;;;;;;36.58;21.05;;;;;;;;;;5047474;28;20064;-85
2023/02/07 01:48:47;;;;;;;36.75;21.27;;;;;;;;;;5067881;28;20053;-85
2023/02/07 01:51:15;;;;;;;38.83;21.67;;;;;;;;;;5057741;28;20053;-85
2023/02/07 01:53:43;;;;;;;38.60;22.27;;;;;;;;;;5039014;28;20045;-85
2023/02/07 01:56:12;;;;;;;43.33;25.02;;;;;;;;;;5041835;28;20061;-85
2023/02/07 01:58:57;;;;;;;41.53;22.95;;;;;;;;;;5056242;28;20077;-85
2023/02/07 02:01:25;;;;;;;37.10;22.13;;;;;;;;;;5055645;28;20052;-85
2023/02/07 02:03:54;;;;;;;39.75;22.25;;;;;;;;;;5056855;28;20128;-85
2023/02/07 02:06:22;;;;;;;42.80;23.40;;;;;;;;;;5057386;28;20083;-86
2023/02/07 02:08:51;;;;;;;39.28;21.42;;;;;;;;;;5058712;28;20064;-86
2023/02/07 02:11:18;;;;;;;42.35;22.70;;;;;;;;;;5063110;28;20100;-85
2023/02/07 02:14:04;;;;;;;45.53;24.75;;;;;;;;;;5059742;28;20063;-85
2023/02/07 02:16:38;;;;;;;42.80;22.65;;;;;;;;;;5046792;28;20033;-85
2023/02/07 02:19:31;;;;;;;42.17;22.58;;;;;;;;;;5078133;28;20100;-84
2023/02/07 02:22:11;;;;;;;42.10;23.10;;;;;;;;;;5072310;28;20109;-85
2023/02/07 02:24:57;;;;;;;45.08;22.05;;;;;;;;;;5060355;28;20029;-85
2023/02/07 02:27:25;;;;;;;44.33;22.75;;;;;;;;;;5043232;28;20053;-85
2023/02/07 02:30:13;;;;;;;41.13;22.00;;;;;;;;;;5036830;28;20049;-86
2023/02/07 02:32:56;;;;;;;39.63;21.85;;;;;;;;;;5022489;28;20438;-86
2023/02/07 02:35:30;;;;;;;42.75;23.13;;;;;;;;;;5023265;28;20504;-86
2023/02/07 02:38:11;;;;;;;40.28;20.73;;;;;;;;;;5041169;28;20046;-85
2023/02/07 02:41:01;;;;;;;38.53;22.23;;;;;;;;;;5020462;28;20068;-85
2023/02/07 02:43:34;;;;;;;42.13;22.30;;;;;;;;;;5018535;28;20478;-86
2023/02/07 02:46:05;;;;;;;38.17;21.00;;;;;;;;;;5020801;28;20088;-85
2023/02/07 02:48:33;;;;;;;41.15;21.73;;;;;;;;;;5018252;28;20053;-86
2023/02/07 02:51:00;;;;;;;43.08;21.35;;;;;;;;;;5021959;28;20460;-86
2023/02/07 02:53:28;;;;;;;41.58;22.10;;;;;;;;;;5022495;28;20549;-86
2023/02/07 02:55:58;;;;;;;42.25;22.25;;;;;;;;;;5041238;28;20414;-85
2023/02/07 02:58:37;;;;;;;38.08;20.08;;;;;;;;;;5024584;28;20057;-86
2023/02/07 03:01:23;;;;;;;47.15;22.10;;;;;;;;;;5023120;28;20052;-86
2023/02/07 03:04:04;;;;;;;42.40;20.83;;;;;;;;;;5044165;28;20132;-86
2023/02/07 03:06:46;;;;;;;38.88;20.48;;;;;;;;;;5041317;28;20045;-86
2023/02/07 03:09:16;;;;;;;38.60;21.15;;;;;;;;;;5038547;28;20061;-86
2023/02/07 03:12:05;;;;;;;39.90;22.00;;;;;;;;;;5038353;28;20046;-85
2023/02/07 03:14:32;;;;;;;39.42;20.58;;;;;;;;;;5038231;28;20056;-86
2023/02/07 03:17:03;;;;;;;42.95;21.70;;;;;;;;;;5021327;28;20049;-85
2023/02/07 03:19:49;;;;;;;39.60;21.17;;;;;;;;;;5021060;28;20064;-86
2023/02/07 03:22:18;;;;;;;40.03;21.45;;;;;;;;;;5038306;28;20501;-85
2023/02/07 03:24:50;;;;;;;39.80;22.15;;;;;;;;;;5038092;28;20053;-86
2023/02/07 03:27:19;;;;;;;45.20;21.70;;;;;;;;;;5038184;28;20072;-86
2023/02/07 03:29:48;;;;;;;40.47;20.77;;;;;;;;;;5038717;28;20421;-86
2023/02/07 03:32:18;;;;;;;36.72;20.10;;;;;;;;;;5038379;28;20394;-86
2023/02/07 03:34:51;;;;;;;42.83;22.75;;;;;;;;;;5038382;28;20064;-86
2023/02/07 03:37:25;;;;;;;43.47;20.83;;;;;;;;;;5038743;28;20057;-86
2023/02/07 03:39:52;;;;;;;44.60;21.15;;;;;;;;;;5020515;28;20054;-86
2023/02/07 03:42:31;;;;;;;45.95;23.00;;;;;;;;;;5020928;28;20051;-86
2023/02/07 03:45:00;;;;;;;46.13;23.13;;;;;;;;;;5038368;28;20056;-86
2023/02/07 03:47:27;;;;;;;39.25;20.65;;;;;;;;;;5026173;28;20060;-86
2023/02/07 03:49:55;;;;;;;41.50;21.08;;;;;;;;;;5020555;28;20053;-86
2023/02/07 03:52:22;;;;;;;43.22;21.45;;;;;;;;;;5020387;28;20076;-87
2023/02/07 03:54:49;;;;;;;43.83;22.00;;;;;;;;;;5038169;28;20053;-86
2023/02/07 03:57:17;;;;;;;43.10;22.58;;;;;;;;;;5038053;28;20053;-86
2023/02/07 03:59:44;;;;;;;44.05;21.20;;;;;;;;;;5020407;28;20050;-86
2023/02/07 04:02:11;;;;;;;47.50;22.67;;;;;;;;;;5019299;28;20060;-86
2023/02/07 04:04:39;;;;;;;46.97;22.63;;;;;;;;;;5020643;28;20096;-86
2023/02/07 04:07:06;;;;;;;52.25;24.90;;;;;;;;;;5022175;28;20048;-86
2023/02/07 04:09:33;;;;;;;51.40;25.02;;;;;;;;;;5033103;28;20080;-85
2023/02/07 04:12:01;;;;;;;54.78;24.77;;;;;;;;;;5059885;28;20090;-85
2023/02/07 04:14:28;;;;;;;50.95;24.67;;;;;;;;;;5054334;28;20042;-86
2023/02/07 04:16:55;;;;;;;51.03;25.33;;;;;;;;;;5023146;28;20080;-86
2023/02/07 04:19:23;;;;;;;52.53;24.92;;;;;;;;;;5020698;28;20049;-86
2023/02/07 04:21:50;;;;;;;48.35;25.13;;;;;;;;;;5037311;28;20092;-87
2023/02/07 04:24:17;;;;;;;51.58;25.05;;;;;;;;;;5019996;28;20056;-86
2023/02/07 04:26:44;;;;;;;52.05;25.33;;;;;;;;;;5036936;28;20405;-86
2023/02/07 04:29:12;;;;;;;53.50;25.88;;;;;;;;;;5037435;28;20489;-86
2023/02/07 04:31:41;;;;;;;52.33;25.10;;;;;;;;;;5020293;28;20060;-87
2023/02/07 04:34:08;;;;;;;47.65;25.25;;;;;;;;;;5019019;28;20516;-87
2023/02/07 04:36:36;;;;;;;55.17;26.58;;;;;;;;;;5037321;28;20413;-87
2023/02/07 04:39:03;;;;;;;56.35;27.35;;;;;;;;;;5019613;28;20052;-86
2023/02/07 04:41:30;;;;;;;54.78;26.05;;;;;;;;;;5036960;28;20045;-86
2023/02/07 04:43:57;;;;;;;47.90;24.45;;;;;;;;;;5036824;28;20056;-87
2023/02/07 04:46:26;;;;;;;48.90;25.30;;;;;;;;;;5018886;28;20053;-87
2023/02/07 04:48:54;;;;;;;52.47;25.73;;;;;;;;;;5036662;28;20099;-87
2023/02/07 04:51:21;;;;;;;55.88;26.55;;;;;;;;;;5019298;28;20059;-86
2023/02/07 04:53:48;;;;;;;45.88;25.92;;;;;;;;;;5019526;28;20079;-87
2023/02/07 04:56:15;;;;;;;41.95;22.88;;;;;;;;;;5019317;28;20056;-87
2023/02/07 04:58:42;;;;;;;42.08;23.60;;;;;;;;;;5037019;28;20052;-86
2023/02/07 05:01:09;;;;;;;40.45;23.55;;;;;;;;;;5019303;28;20060;-86
2023/02/07 05:03:37;;;;;;;44.25;22.77;;;;;;;;;;5036698;28;20085;-86
2023/02/07 05:06:04;;;;;;;44.47;24.33;;;;;;;;;;5037181;28;20068;-87
2023/02/07 05:08:31;;;;;;;41.35;22.55;;;;;;;;;;5020215;28;20110;-87
2023/02/07 05:10:59;;;;;;;42.22;22.30;;;;;;;;;;5023658;28;20041;-87
2023/02/07 05:13:26;;;;;;;46.55;24.20;;;;;;;;;;5035332;28;20083;-87
2023/02/07 05:15:53;;;;;;;40.58;22.30;;;;;;;;;;5037914;28;20049;-86
2023/02/07 05:18:21;;;;;;;45.58;24.00;;;;;;;;;;5020111;28;20494;-87
2023/02/07 05:20:49;;;;;;;39.40;22.77;;;;;;;;;;5036376;28;20080;-87
2023/02/07 05:23:18;;;;;;;40.72;21.98;;;;;;;;;;5036188;28;20490;-86
2023/02/07 05:25:46;;;;;;;36.10;21.05;;;;;;;;;;5019416;28;20045;-86
2023/02/07 05:28:14;;;;;;;36.03;20.42;;;;;;;;;;5018305;28;20151;-87
2023/02/07 05:30:41;;;;;;;38.45;21.00;;;;;;;;;;5036581;28;20073;-87
2023/02/07 05:33:09;;;;;;;41.08;21.58;;;;;;;;;;5019776;28;20080;-87
2023/02/07 05:35:38;;;;;;;40.42;23.02;;;;;;;;;;5018564;28;20057;-86
2023/02/07 05:38:07;;;;;;;44.88;24.63;;;;;;;;;;5019211;28;20143;-87
2023/02/07 05:40:35;;;;;;;47.63;25.65;;;;;;;;;;5036382;28;20046;-87
2023/02/07 05:43:03;;;;;;;49.28;25.98;;;;;;;;;;5035977;28;20144;-87
2023/02/07 05:45:30;;;;;;;48.15;24.48;;;;;;;;;;5018317;28;20042;-87
2023/02/07 05:47:58;;;;;;;47.72;25.30;;;;;;;;;;5018690;28;20587;-87
2023/02/07 05:50:25;;;;;;;46.80;24.77;;;;;;;;;;5035881;28;20128;-87
2023/02/07 05:52:53;;;;;;;46.55;24.80;;;;;;;;;;5018958;28;20059;-87
2023/02/07 05:55:20;;;;;;;51.53;25.27;;;;;;;;;;5041900;28;20033;-86
2023/02/07 05:57:47;;;;;;;47.58;24.55;;;;;;;;;;5023107;28;20476;-87
2023/02/07 06:00:17;;;;;;;61.22;32.47;;;;;;;;;;5020593;28;20049;-87
2023/02/07 06:02:45;;;;;;;88.80;49.10;;;;;;;;;;5031044;28;20398;-87
2023/02/07 06:05:13;;;;;;;64.93;34.97;;;;;;;;;;5057915;28;20033;-87
2023/02/07 06:07:40;;;;;;;80.15;45.42;;;;;;;;;;5056228;28;20117;-87
2023/02/07 06:10:08;;;;;;;125.38;73.13;;;;;;;;;;5027061;28;20052;-87
2023/02/07 06:12:36;;;;;;;66.50;36.38;;;;;;;;;;5044284;28;20533;-87
2023/02/07 06:15:04;;;;;;;62.47;32.05;;;;;;;;;;5027422;28;20053;-87
2023/02/07 06:17:31;;;;;;;55.45;28.55;;;;;;;;;;5044828;28;20129;-87
2023/02/07 06:19:59;;;;;;;49.40;27.17;;;;;;;;;;5027705;28;20053;-88
2023/02/07 06:22:26;;;;;;;44.72;24.50;;;;;;;;;;5026948;28;20113;-87
2023/02/07 06:24:54;;;;;;;44.45;23.17;;;;;;;;;;5026571;28;20049;-86
2023/02/07 06:27:21;;;;;;;46.42;24.92;;;;;;;;;;5011913;28;20476;-87
2023/02/07 06:29:49;;;;;;;44.38;23.60;;;;;;;;;;5044473;28;20056;-88
2023/02/07 06:32:16;;;;;;;48.53;22.63;;;;;;;;;;5027806;28;20050;-87
2023/02/07 06:34:43;;;;;;;44.72;22.05;;;;;;;;;;5027193;28;20069;-87
2023/02/07 06:37:11;;;;;;;43.60;22.38;;;;;;;;;;5028248;28;20055;-87
2023/02/07 06:39:39;;;;;;;44.25;21.83;;;;;;;;;;5028593;28;20049;-87
2023/02/07 06:42:06;;;;;;;43.05;21.80;;;;;;;;;;5027373;28;20053;-87
2023/02/07 06:44:33;;;;;;;42.33;22.45;;;;;;;;;;5046170;28;20077;-87
2023/02/07 06:47:00;;;;;;;42.05;21.15;;;;;;;;;;5028668;28;20052;-87
2023/02/07 06:49:27;;;;;;;44.38;21.48;;;;;;;;;;5029538;28;20073;-87
2023/02/07 06:51:55;;;;;;;37.15;20.00;;;;;;;;;;5029672;28;20041;-87
2023/02/07 06:54:22;;;;;;;42.90;21.10;;;;;;;;;;5030161;28;20046;-87
2023/02/07 06:56:50;;;;;;;36.60;19.13;;;;;;;;;;5030196;28;20107;-87
2023/02/07 06:59:17;;;;;;;39.35;19.50;;;;;;;;;;5047638;28;20049;-87
2023/02/07 07:01:45;;;;;;;42.65;20.27;;;;;;;;;;5031191;28;20069;-87
2023/02/07 07:04:17;;;;;;;48.53;20.42;;;;;;;;;;5027918;28;20049;-87
2023/02/07 07:06:44;;;;;;;38.60;18.17;;;;;;;;;;5029176;28;20532;-87
2023/02/07 07:09:12;;;;;;;40.25;17.90;;;;;;;;;;5029685;28;20124;-87
2023/02/07 07:11:41;;;;;;;34.28;16.80;;;;;;;;;;5028677;28;20049;-86
2023/02/07 07:14:09;;;;;;;115.93;27.33;;;;;;;;;;5029108;28;20064;-87
2023/02/07 07:16:37;;;;;;;56.85;20.50;;;;;;;;;;5046128;28;20057;-86
2023/02/07 07:19:05;;;;;;;42.67;18.92;;;;;;;;;;5048631;28;20049;-87
2023/02/07 07:21:32;;;;;;;44.97;19.75;;;;;;;;;;5032844;28;20367;-86
2023/02/07 07:23:59;;;;;;;45.85;19.40;;;;;;;;;;5050234;28;20045;-87
2023/02/07 07:26:27;;;;;;;40.05;19.63;;;;;;;;;;5031919;28;20119;-87
2023/02/07 07:29:12;;;;;;;35.83;18.40;;;;;;;;;;5031799;28;20053;-87
2023/02/07 07:31:40;;;;;;;34.95;19.08;;;;;;;;;;5045702;28;20085;-87
2023/02/07 07:34:10;;;;;;;36.40;19.63;;;;;;;;;;5046072;28;20059;-87
2023/02/07 07:36:38;;;;;;;46.20;22.48;;;;;;;;;;5046841;28;20472;-87
2023/02/07 07:39:07;;;;;;;42.55;22.73;;;;;;;;;;5032723;28;20060;-87
2023/02/07 07:41:35;;;;;;;40.38;21.48;;;;;;;;;;5032100;28;20057;-87
2023/02/07 07:44:02;;;;;;;47.03;23.17;;;;;;;;;;5052265;28;20050;-87
2023/02/07 07:46:29;;;;;;;102.13;46.85;;;;;;;;;;5033300;28;20112;-87
2023/02/07 07:48:57;;;;;;;61.08;32.38;;;;;;;;;;5049921;28;20058;-87
2023/02/07 07:51:24;;;;;;;40.30;22.52;;;;;;;;;;5051266;28;20045;-88
2023/02/07 07:53:51;;;;;;;47.63;25.52;;;;;;;;;;5032732;28;20053;-87
2023/02/07 07:56:18;;;;;;;50.28;26.55;;;;;;;;;;5031063;28;20500;-87
2023/02/07 07:58:47;;;;;;;46.17;25.35;;;;;;;;;;5031588;28;20125;-87
2023/02/07 08:01:14;;;;;;;52.15;28.00;;;;;;;;;;5053383;28;20037;-87
2023/02/07 08:03:42;;;;;;;48.70;24.95;;;;;;;;;;5059851;28;20060;-88
2023/02/07 08:06:09;;;;;;;43.45;22.80;;;;;;;;;;5058131;28;20109;-88
2023/02/07 08:08:37;;;;;;;46.20;23.15;;;;;;;;;;5034627;28;20069;-88
2023/02/07 08:11:05;;;;;;;43.60;21.83;;;;;;;;;;5051066;28;20050;-87
2023/02/07 08:13:34;;;;;;;44.60;22.63;;;;;;;;;;5048317;28;20521;-87
2023/02/07 08:16:01;;;;;;;41.22;21.60;;;;;;;;;;5031974;28;20060;-88
2023/02/07 08:18:29;;;;;;;42.20;22.58;;;;;;;;;;5049006;28;20126;-87
2023/02/07 08:20:57;;;;;;;47.22;23.90;;;;;;;;;;5030708;28;20100;-87
2023/02/07 08:23:24;;;;;;;47.83;23.15;;;;;;;;;;5030587;28;20053;-87
2023/02/07 08:25:51;;;;;;;42.03;22.27;;;;;;;;;;5032483;28;20052;-86
2023/02/07 08:28:19;;;;;;;37.80;20.67;;;;;;;;;;5047339;28;20057;-87
2023/02/07 08:30:46;;;;;;;42.33;22.13;;;;;;;;;;5048434;28;20046;-88
2023/02/07 08:33:14;;;;;;;40.05;21.73;;;;;;;;;;5048417;28;20410;-88
2023/02/07 08:35:42;;;;;;;40.72;21.15;;;;;;;;;;5034250;28;20040;-87
2023/02/07 08:38:10;;;;;;;40.33;21.20;;;;;;;;;;5012400;28;20077;-87
2023/02/07 08:40:38;;;;;;;43.45;21.92;;;;;;;;;;5028951;28;20053;-87
2023/02/07 08:43:11;;;;;;;44.90;22.70;;;;;;;;;;5028253;28;20064;-86
2023/02/07 08:45:40;;;;;;;48.67;24.85;;;;;;;;;;5030549;28;20053;-87
2023/02/07 08:48:08;;;;;;;39.13;20.52;;;;;;;;;;5045598;28;20091;-88
2023/02/07 08:50:35;;;;;;;94.35;37.55;;;;;;;;;;5029874;28;20109;-87
2023/02/07 08:53:03;;;;;;;81.85;34.53;;;;;;;;;;5029924;28;20482;-87
2023/02/07 08:55:30;;;;;;;50.78;26.17;;;;;;;;;;5029344;28;20136;-87
2023/02/07 08:57:58;;;;;;;48.42;25.08;;;;;;;;;;5029763;28;20050;-87
2023/02/07 09:00:25;;;;;;;42.88;24.55;;;;;;;;;;5046470;28;20081;-86
2023/02/07 09:02:53;;;;;;;35.83;20.83;;;;;;;;;;5047054;28;20060;-86
2023/02/07 09:05:20;;;;;;;27.40;15.77;;;;;;;;;;5049212;28;20115;-86
2023/02/07 09:07:47;;;;;;;70.60;45.92;;;;;;;;;;5028418;28;20100;-86
2023/02/07 09:10:15;;;;;;;21.65;14.05;;;;;;;;;;5047166;28;20113;-86
2023/02/07 09:12:42;;;;;;;48.67;30.42;;;;;;;;;;5029820;28;20115;-85
2023/02/07 09:15:09;;;;;;;22.25;15.32;;;;;;;;;;5045876;28;20096;-84
2023/02/07 09:17:37;;;;;;;20.23;14.13;;;;;;;;;;5046031;28;20052;-84
2023/02/07 09:20:04;;;;;;;18.80;12.00;;;;;;;;;;5031206;28;20055;-84
2023/02/07 09:23:16;;;;;;;17.85;11.68;;;;;;;;;;5027110;28;20101;-84
2023/02/07 09:25:19;;;;;;;32.13;11.95;;;;;;;;;;5044690;28;20084;-85
2023/02/07 09:27:46;;;;;;;72.55;14.75;;;;;;;;;;5045673;28;20113;-85
2023/02/07 09:30:14;;;;;;;29.95;11.50;;;;;;;;;;5046825;28;20045;-83
2023/02/07 09:32:41;;;;;;;18.65;11.52;;;;;;;;;;5045439;28;20109;-85
2023/02/07 09:35:08;;;;;;;19.65;11.23;;;;;;;;;;5026899;28;20056;-85
2023/02/07 09:37:36;;;;;;;16.75;11.27;;;;;;;;;;5045537;28;20063;-85
2023/02/07 09:40:17;;;;;;;19.98;11.38;;;;;;;;;;5028789;28;20057;-85
2023/02/07 09:42:48;;;;;;;26.13;13.07;;;;;;;;;;5044182;28;20057;-85
2023/02/07 09:45:20;;;;;;;24.05;12.50;;;;;;;;;;5027740;28;20053;-85
2023/02/07 09:47:50;;;;;;;22.33;11.77;;;;;;;;;;5026695;28;20068;-85
2023/02/07 09:50:21;;;;;;;22.17;10.88;;;;;;;;;;5044761;28;20063;-85
2023/02/07 09:52:51;;;;;;;21.02;11.30;;;;;;;;;;5028813;28;20140;-84
2023/02/07 09:55:22;;;;;;;22.05;13.18;;;;;;;;;;5031138;28;20053;-85
2023/02/07 09:57:55;;;;;;;35.05;20.30;;;;;;;;;;5036930;28;20034;-85
2023/02/07 10:00:25;;;;;;;18.80;10.23;;;;;;;;;;5040257;28;20061;-85
2023/02/07 10:02:57;;;;;;;21.35;11.30;;;;;;;;;;5053774;28;20065;-84
2023/02/07 10:05:42;;;;;;;29.10;11.70;;;;;;;;;;5051076;28;20072;-84
2023/02/07 10:08:12;;;;;;;22.90;11.07;;;;;;;;;;5027070;28;20492;-83
2023/02/07 10:10:48;;;;;;;23.83;10.60;;;;;;;;;;5028792;28;20056;-84
2023/02/07 10:13:21;;;;;;;23.85;10.77;;;;;;;;;;5027216;28;20053;-84
2023/02/07 10:15:58;;;;;;;20.40;10.70;;;;;;;;;;5026319;28;20053;-84
2023/02/07 10:18:28;;;;;;;15.63;11.00;;;;;;;;;;5026106;28;20053;-84
2023/02/07 10:21:15;;;;;;;23.23;13.10;;;;;;;;;;5027100;28;20042;-84
2023/02/07 10:23:50;;;;;;;18.45;10.50;;;;;;;;;;5027024;28;20545;-84
2023/02/07 10:26:24;;;;;;;20.92;10.02;;;;;;;;;;5045894;28;20478;-84
2023/02/07 10:29:02;;;;;;;17.63;9.77;;;;;;;;;;5044184;28;20056;-85
2023/02/07 10:31:31;;;;;;;19.05;13.50;;;;;;;;;;5027033;28;20107;-85
2023/02/07 10:34:09;;;;;;;23.02;16.83;;;;;;;;;;5044342;28;20119;-85
2023/02/07 10:36:36;;;;;;;39.55;27.45;;;;;;;;;;5043694;28;20494;-85
2023/02/07 10:39:11;;;;;;;97.70;65.25;;;;;;;;;;5026989;28;20049;-85
2023/02/07 10:41:40;;;;;;;32.67;19.42;;;;;;;;;;5028496;28;20053;-85
2023/02/07 10:44:12;;;;;;;44.40;29.35;;;;;;;;;;5028255;28;20042;-85
2023/02/07 10:46:44;;;;;;;95.00;61.00;;;;;;;;;;5027832;28;20073;-85
2023/02/07 10:49:23;;;;;;;73.40;47.35;;;;;;;;;;5027368;28;20054;-85
2023/02/07 10:51:54;;;;;;;46.00;31.83;;;;;;;;;;5046697;28;20079;-85
2023/02/07 10:54:23;;;;;;;76.85;51.13;;;;;;;;;;5044891;28;20122;-84
2023/02/07 10:56:50;;;;;;;27.33;15.40;;;;;;;;;;5045923;28;20049;-84
2023/02/07 10:59:44;;;;;;;18.25;11.80;;;;;;;;;;5028331;28;20081;-85
2023/02/07 11:02:31;;;;;;;13.95;9.35;;;;;;;;;;5024463;28;20052;-85
2023/02/07 11:05:04;;;;;;;16.33;10.35;;;;;;;;;;5028375;28;20053;-84
2023/02/07 11:07:32;;;;;;;14.93;10.13;;;;;;;;;;5027993;28;20053;-84
2023/02/07 11:10:13;;;;;;;13.63;9.07;;;;;;;;;;5045956;28;20045;-84
2023/02/07 11:12:45;;;;;;;10.27;8.23;;;;;;;;;;5049189;28;20053;-83
2023/02/07 11:15:21;;;;;;;52.78;41.10;;;;;;;;;;5032023;28;20113;-84
2023/02/07 11:17:49;;;;;;;80.32;62.45;;;;;;;;;;5049026;28;20417;-85
2023/02/07 11:20:36;;;;;;;18.00;14.90;;;;;;;;;;5031983;28;20045;-83
2023/02/07 11:23:06;;;;;;;12.25;9.55;;;;;;;;;;5048777;28;20077;-85
2023/02/07 11:25:39;;;;;;;34.28;24.23;;;;;;;;;;5049765;28;20069;-84
2023/02/07 11:28:07;;;;;;;8.27;6.90;;;;;;;;;;5049252;28;20053;-85
2023/02/07 11:30:36;;;;;;;7.40;6.50;;;;;;;;;;5032679;28;20053;-85
2023/02/07 11:33:04;;;;;;;53.85;23.08;;;;;;;;;;5027845;28;20536;-85
2023/02/07 11:35:32;;;;;;;7.10;6.18;;;;;;;;;;5029019;28;20045;-85
2023/02/07 11:38:01;;;;;;;28.60;8.35;;;;;;;;;;5030747;28;20137;-86
2023/02/07 11:40:51;;;;;;;12.27;7.68;;;;;;;;;;5048829;28;20046;-85
2023/02/07 11:43:21;;;;;;;214.13;21.70;;;;;;;;;;5031965;28;20050;-86
2023/02/07 11:45:51;;;;;;;46.03;14.00;;;;;;;;;;5033729;28;20108;-85
2023/02/07 11:48:20;;;;;;;35.40;21.92;;;;;;;;;;5049570;28;20049;-85
2023/02/07 11:50:51;;;;;;;39.03;22.52;;;;;;;;;;5042343;28;20025;-85
2023/02/07 11:53:23;;;;;;;31.55;11.25;;;;;;;;;;5042300;28;20077;-85
2023/02/07 11:55:53;;;;;;;13.55;9.35;;;;;;;;;;5033342;28;20072;-85
2023/02/07 11:58:33;;;;;;;51.53;36.83;;;;;;;;;;5050970;28;20053;-84
2023/02/07 12:01:01;;;;;;;18.35;11.73;;;;;;;;;;5033140;28;20045;-84
2023/02/07 12:03:43;;;;;;;31.58;21.20;;;;;;;;;;5033436;28;20057;-85
2023/02/07 12:06:14;;;;;;;78.35;42.67;;;;;;;;;;5033419;28;20053;-85
2023/02/07 12:08:41;;;;;;;18.50;13.55;;;;;;;;;;5049738;28;20049;-84
2023/02/07 12:11:17;;;;;;;14.07;12.05;;;;;;;;;;5032276;28;20080;-83
2023/02/07 12:13:48;;;;;;;16.55;13.82;;;;;;;;;;5032791;28;20117;-80
2023/02/07 12:16:38;;;;;;;21.23;15.18;;;;;;;;;;5045112;28;20504;-84
2023/02/07 12:19:10;;;;;;;18.90;14.13;;;;;;;;;;5021241;28;20104;-83
2023/02/07 12:21:46;;;;;;;19.20;13.35;;;;;;;;;;5037868;28;20042;-83
2023/02/07 12:24:18;;;;;;;17.73;12.93;;;;;;;;;;5019803;28;20049;-83
2023/02/07 12:26:53;;;;;;;25.80;14.82;;;;;;;;;;5037859;28;20092;-84
2023/02/07 12:29:26;;;;;;;20.63;14.43;;;;;;;;;;5037134;28;20057;-83
2023/02/07 12:32:03;;;;;;;18.30;12.95;;;;;;;;;;5037038;28;20056;-84
2023/02/07 12:34:30;;;;;;;13.98;11.50;;;;;;;;;;5019235;28;20119;-83
2023/02/07 12:37:31;;;;;;;23.55;12.15;;;;;;;;;;5018865;28;20054;-83
2023/02/07 12:40:17;;;;;;;16.05;11.45;;;;;;;;;;4998174;28;20413;-83
2023/02/07 12:42:50;;;;;;;17.15;12.25;;;;;;;;;;5019381;28;20478;-83
2023/02/07 12:45:36;;;;;;;16.20;12.50;;;;;;;;;;5019738;28;20124;-83
2023/02/07 12:48:16;;;;;;;16.08;12.00;;;;;;;;;;5038074;28;20053;-84
2023/02/07 12:50:43;;;;;;;20.08;13.18;;;;;;;;;;5041876;28;20180;-84
2023/02/07 12:53:13;;;;;;;16.95;12.38;;;;;;;;;;5038842;28;20056;-84
2023/02/07 12:55:46;;;;;;;19.80;12.93;;;;;;;;;;5038824;28;20084;-84
2023/02/07 12:58:16;;;;;;;20.65;12.20;;;;;;;;;;5036868;28;20550;-84
2023/02/07 13:00:52;;;;;;;18.92;12.45;;;;;;;;;;5019166;28;20050;-83
2023/02/07 13:03:30;;;;;;;19.98;12.27;;;;;;;;;;5022013;28;20045;-83
2023/02/07 13:06:21;;;;;;;16.95;11.85;;;;;;;;;;5039818;28;20056;-83
2023/02/07 13:09:07;;;;;;;16.55;11.40;;;;;;;;;;5036925;28;20072;-83
2023/02/07 13:11:40;;;;;;;16.77;11.98;;;;;;;;;;5037275;28;20045;-83
2023/02/07 13:14:20;;;;;;;17.70;11.82;;;;;;;;;;5019381;28;20077;-82
2023/02/07 13:16:53;;;;;;;16.38;11.35;;;;;;;;;;5019597;28;20061;-83
2023/02/07 13:19:39;;;;;;;22.63;11.25;;;;;;;;;;5018823;28;20494;-83
2023/02/07 13:22:07;;;;;;;;;;;;;;;;;;5036756;28;20049;-83
2023/02/07 13:24:35;;;;;;;25.15;11.93;;;;;;;;;;5019340;28;19927;-83
2023/02/07 13:27:09;;;;;;;17.17;12.15;;;;;;;;;;5036396;28;20057;-83
2023/02/07 13:29:37;;;;;;;16.67;10.65;;;;;;;;;;5036236;28;20049;-83
2023/02/07 13:32:11;;;;;;;23.83;10.95;;;;;;;;;;5022862;28;20056;-82
2023/02/07 13:34:44;;;;;;;16.17;10.32;;;;;;;;;;5019653;28;20053;-84
2023/02/07 13:37:13;;;;;;;19.63;11.43;;;;;;;;;;5036199;28;20052;-84
2023/02/07 13:39:50;;;;;;;17.80;10.52;;;;;;;;;;5019450;28;20049;-83
2023/02/07 13:42:38;;;;;;;16.70;10.88;;;;;;;;;;5019064;28;20164;-84
2023/02/07 13:45:14;;;;;;;14.15;10.23;;;;;;;;;;5031258;28;20049;-84
2023/02/07 13:47:41;;;;;;;18.00;10.75;;;;;;;;;;5041092;28;20091;-83
2023/02/07 13:50:24;;;;;;;16.15;10.85;;;;;;;;;;5047582;28;20049;-84
2023/02/07 13:53:04;;;;;;;16.65;10.88;;;;;;;;;;5018529;28;20049;-83
2023/02/07 13:55:34;;;;;;;18.42;10.82;;;;;;;;;;5036211;28;20055;-84
2023/02/07 14:00:46;;;;;;;17.92;11.05;;;;;;;;;;5035715;28;20042;-84
2023/02/07 14:03:19;;;;;;;16.92;11.00;;;;;;;;;;5018004;28;20045;-84
2023/02/07 14:05:47;;;;;;;14.05;10.48;;;;;;;;;;5018189;28;20077;-84
2023/02/07 14:08:17;;;;;;;13.93;10.05;;;;;;;;;;5035249;28;20041;-84
2023/02/07 14:10:54;;;;;;;12.52;9.90;;;;;;;;;;5019879;28;20053;-84
2023/02/07 14:13:27;;;;;;;18.65;10.75;;;;;;;;;;5014536;28;20052;-85
2023/02/07 14:15:55;;;;;;;;;;;;;;;;;;5017793;28;20045;-83
2023/02/07 14:18:35;;;;;;;19.58;11.93;;;;;;;;;;5017751;28;20280;-84
2023/02/07 14:21:04;;;;;;;16.70;10.70;;;;;;;;;;5035401;28;20156;-83
2023/02/07 14:23:50;;;;;;;17.85;11.32;;;;;;;;;;5017523;28;20049;-83
2023/02/07 14:26:36;;;;;;;16.17;10.23;;;;;;;;;;5035230;28;20085;-83
2023/02/07 14:29:22;;;;;;;21.05;11.35;;;;;;;;;;5017637;28;20482;-84
2023/02/07 14:31:50;;;;;;;19.77;10.60;;;;;;;;;;5035193;28;20053;-83
2023/02/07 14:34:23;;;;;;;21.48;10.30;;;;;;;;;;5017573;28;20056;-84
2023/02/07 14:36:53;;;;;;;13.57;9.95;;;;;;;;;;5035254;28;20061;-84
2023/02/07 14:39:28;;;;;;;66.47;13.93;;;;;;;;;;5034944;28;20050;-84
2023/02/07 14:42:02;;;;;;;28.58;10.57;;;;;;;;;;5017522;28;20104;-84